sensor_id;sensor_type;location;lat;lon;timestamp;pressure;altitude;pressure_sealevel;temperature;humidity
3832;BME280;12460;42.662;23.288;2023-03-14T00:05:25;94729.06;;;5.48;46.94
3832;BME280;12460;42.662;23.288;2023-03-14T00:20:30;94703.44;;;5.36;46.55
3832;BME280;12460;42.662;23.288;2023-03-14T00:35:34;94698.34;;;5.22;47.23
3832;BME280;12460;42.662;23.288;2023-03-14T00:50:39;94685.78;;;5.15;48.03
3832;BME280;12460;42.662;23.288;2023-03-14T01:05:44;94667.09;;;4.97;48.83
3832;BME280;12460;42.662;23.288;2023-03-14T01:20:51;94657.44;;;4.98;48.85
3832;BME280;12460;42.662;23.288;2023-03-14T01:35:55;94637.91;;;4.85;48.32
3832;BME280;12460;42.662;23.288;2023-03-14T01:51:02;94632.44;;;4.79;48.36
3832;BME280;12460;42.662;23.288;2023-03-14T02:06:11;94626.84;;;4.79;47.74
3832;BME280;12460;42.662;23.288;2023-03-14T02:21:22;94614.41;;;4.67;48.72
3832;BME280;12460;42.662;23.288;2023-03-14T02:36:27;94611.13;;;4.50;48.53
3832;BME280;12460;42.662;23.288;2023-03-14T02:51:34;94620.31;;;4.45;48.89
3832;BME280;12460;42.662;23.288;2023-03-14T03:06:41;94626.34;;;4.31;49.40
3832;BME280;12460;42.662;23.288;2023-03-14T03:21:47;94620.19;;;4.19;49.53
3832;BME280;12460;42.662;23.288;2023-03-14T03:36:56;94621.28;;;4.16;50.26
3832;BME280;12460;42.662;23.288;2023-03-14T03:52:04;94636.75;;;4.11;50.30
3832;BME280;12460;42.662;23.288;2023-03-14T04:07:10;94616.59;;;4.05;50.32
3832;BME280;12460;42.662;23.288;2023-03-14T04:22:18;94613.97;;;3.94;50.54
3832;BME280;12460;42.662;23.288;2023-03-14T04:37:25;94603.91;;;3.91;50.37
3832;BME280;12460;42.662;23.288;2023-03-14T04:52:31;94579.78;;;3.99;50.26
3832;BME280;12460;42.662;23.288;2023-03-14T05:07:36;94578.06;;;4.28;50.27
3832;BME280;12460;42.662;23.288;2023-03-14T05:23:07;94587.91;;;5.06;49.02
3832;BME280;12460;42.662;23.288;2023-03-14T05:38:27;94558.13;;;12.73;35.82
3832;BME280;12460;42.662;23.288;2023-03-14T05:53:40;94560.25;;;15.48;29.72
3832;BME280;12460;42.662;23.288;2023-03-14T06:09:03;94543.00;;;14.94;29.70
3832;BME280;12460;42.662;23.288;2023-03-14T06:24:10;94561.03;;;13.18;31.47
3832;BME280;12460;42.662;23.288;2023-03-14T06:39:22;94555.72;;;13.97;30.29
3832;BME280;12460;42.662;23.288;2023-03-14T06:54:36;94532.88;;;14.91;27.43
3832;BME280;12460;42.662;23.288;2023-03-14T07:09:41;94518.94;;;13.59;29.74
3832;BME280;12460;42.662;23.288;2023-03-14T07:24:46;94523.44;;;13.71;29.24
3832;BME280;12460;42.662;23.288;2023-03-14T07:39:50;94504.22;;;14.27;29.17
3832;BME280;12460;42.662;23.288;2023-03-14T07:54:58;94491.41;;;16.86;26.02
3832;BME280;12460;42.662;23.288;2023-03-14T08:10:04;94484.25;;;18.51;24.24
3832;BME280;12460;42.662;23.288;2023-03-14T08:25:09;94473.09;;;18.55;23.60
3832;BME280;12460;42.662;23.288;2023-03-14T08:40:15;94457.56;;;18.07;24.38
3832;BME280;12460;42.662;23.288;2023-03-14T08:55:21;94441.81;;;17.70;23.86
3832;BME280;12460;42.662;23.288;2023-03-14T09:10:25;94400.44;;;20.03;21.57
3832;BME280;12460;42.662;23.288;2023-03-14T09:25:30;94377.50;;;17.16;24.03
3832;BME280;12460;42.662;23.288;2023-03-14T09:40:36;94347.41;;;17.60;23.56
3832;BME280;12460;42.662;23.288;2023-03-14T09:55:42;94328.03;;;18.45;22.86
3832;BME280;12460;42.662;23.288;2023-03-14T10:10:47;94291.88;;;18.89;22.42
3832;BME280;12460;42.662;23.288;2023-03-14T10:26:06;94260.94;;;18.97;22.60
3832;BME280;12460;42.662;23.288;2023-03-14T10:41:17;94219.72;;;20.01;21.80
3832;BME280;12460;42.662;23.288;2023-03-14T10:56:25;94184.72;;;17.24;25.18
3832;BME280;12460;42.662;23.288;2023-03-14T11:11:30;94160.59;;;17.00;25.75
3832;BME280;12460;42.662;23.288;2023-03-14T11:26:48;94107.69;;;17.84;25.50
3832;BME280;12460;42.662;23.288;2023-03-14T11:41:58;94080.94;;;17.62;26.06
3832;BME280;12460;42.662;23.288;2023-03-14T11:57:15;94060.16;;;18.70;24.67
3832;BME280;12460;42.662;23.288;2023-03-14T12:12:22;94024.06;;;18.32;25.04
3832;BME280;12460;42.662;23.288;2023-03-14T12:42:59;93970.13;;;18.95;24.19
3832;BME280;12460;42.662;23.288;2023-03-14T12:58:17;93927.41;;;18.21;24.74
3832;BME280;12460;42.662;23.288;2023-03-14T13:13:29;93917.19;;;18.15;24.62
3832;BME280;12460;42.662;23.288;2023-03-14T13:28:34;93884.88;;;18.09;24.40
3832;BME280;12460;42.662;23.288;2023-03-14T13:43:41;93863.13;;;17.30;25.10
3832;BME280;12460;42.662;23.288;2023-03-14T13:58:48;93821.22;;;17.87;24.58
3832;BME280;12460;42.662;23.288;2023-03-14T14:13:51;93787.31;;;17.48;24.75
3832;BME280;12460;42.662;23.288;2023-03-14T14:29:02;93750.84;;;17.15;24.61
3832;BME280;12460;42.662;23.288;2023-03-14T14:44:12;93729.69;;;16.75;24.92
3832;BME280;12460;42.662;23.288;2023-03-14T14:59:28;93713.38;;;16.49;25.67
3832;BME280;12460;42.662;23.288;2023-03-14T15:14:33;93699.81;;;16.20;25.36
3832;BME280;12460;42.662;23.288;2023-03-14T15:29:37;93676.88;;;15.75;25.21
3832;BME280;12460;42.662;23.288;2023-03-14T15:44:42;93665.44;;;15.09;25.11
3832;BME280;12460;42.662;23.288;2023-03-14T15:59:47;93672.72;;;14.76;25.98
3832;BME280;12460;42.662;23.288;2023-03-14T16:14:52;93657.97;;;14.17;26.86
3832;BME280;12460;42.662;23.288;2023-03-14T16:29:58;93674.97;;;13.71;27.41
3832;BME280;12460;42.662;23.288;2023-03-14T16:45:06;93679.69;;;13.22;28.68
3832;BME280;12460;42.662;23.288;2023-03-14T17:00:11;93688.31;;;13.03;28.66
3832;BME280;12460;42.662;23.288;2023-03-14T17:15:16;93691.50;;;12.43;28.49
3832;BME280;12460;42.662;23.288;2023-03-14T17:30:21;93695.97;;;11.95;28.42
3832;BME280;12460;42.662;23.288;2023-03-14T17:45:25;93678.31;;;11.63;28.61
3832;BME280;12460;42.662;23.288;2023-03-14T18:00:30;93693.31;;;11.16;28.76
3832;BME280;12460;42.662;23.288;2023-03-14T18:15:34;93697.66;;;10.98;30.37
3832;BME280;12460;42.662;23.288;2023-03-14T18:30:38;93696.19;;;10.78;30.00
3832;BME280;12460;42.662;23.288;2023-03-14T18:45:43;93687.59;;;10.76;29.60
3832;BME280;12460;42.662;23.288;2023-03-14T19:00:48;93687.16;;;10.70;28.13
3832;BME280;12460;42.662;23.288;2023-03-14T19:15:52;93684.38;;;10.50;27.83
3832;BME280;12460;42.662;23.288;2023-03-14T19:31:00;93696.50;;;10.43;29.03
3832;BME280;12460;42.662;23.288;2023-03-14T19:46:04;93695.63;;;10.22;30.03
3832;BME280;12460;42.662;23.288;2023-03-14T20:01:09;93691.75;;;10.17;30.54
3832;BME280;12460;42.662;23.288;2023-03-14T20:16:17;93682.09;;;10.01;32.08
3832;BME280;12460;42.662;23.288;2023-03-14T20:31:22;93658.97;;;9.64;33.51
3832;BME280;12460;42.662;23.288;2023-03-14T20:46:27;93659.69;;;9.19;35.97
3832;BME280;12460;42.662;23.288;2023-03-14T21:01:32;93630.25;;;9.01;36.62
3832;BME280;12460;42.662;23.288;2023-03-14T21:16:55;93646.56;;;9.22;36.70
3832;BME280;12460;42.662;23.288;2023-03-14T21:32:01;93652.16;;;9.12;37.02
3832;BME280;12460;42.662;23.288;2023-03-14T21:47:08;93652.00;;;9.10;37.85
3832;BME280;12460;42.662;23.288;2023-03-14T22:02:15;93630.56;;;9.05;38.00
3832;BME280;12460;42.662;23.288;2023-03-14T22:17:20;93613.78;;;8.78;38.13
3832;BME280;12460;42.662;23.288;2023-03-14T22:32:24;93583.31;;;8.65;38.31
3832;BME280;12460;42.662;23.288;2023-03-14T22:47:30;93582.59;;;8.65;38.66
3832;BME280;12460;42.662;23.288;2023-03-14T23:02:34;93568.28;;;8.70;39.72
3832;BME280;12460;42.662;23.288;2023-03-14T23:17:39;93565.19;;;8.66;40.25
3832;BME280;12460;42.662;23.288;2023-03-14T23:32:44;93558.63;;;8.54;40.26
3832;BME280;12460;42.662;23.288;2023-03-14T23:47:49;93564.47;;;8.39;41.79
